1991 Tropical Cyclone KELVIN (1991055S12142)


IBTrACS version v04r00. Visit IBTrACS website for data access.
Please direct all questions to the IBTrACS Q and A forum

Storm track - Intensity - Wind Radii - Intensity Data - Source Data - All data

Summary Information

Satellite image near maximum intensity
Storm ID 1991055S12142
Start Feb 24 06Z
Landfall Feb 24 09Z
Max Intensity 60 kt (Feb 25 12Z), 980 mb (Feb 26 17Z)
End Mar 6 12Z
ATCF IDs ,SH131991
Track status Best track data.

Storm track plot

Map of storm track

Intensity plots

Map of storm track

Radial wind information

Map of storm track

Position and Intensity Table

BASIN ISO_TIME_________ NATURE LAT LON WMO WIND WMO PRES USA WIND BOM WIND BOM PRES WELLINGTON WIND WELLINGTON PRES NEUMANN WIND
degrees north degrees east kts mb kts kts mb kts mb kts
SP 1991-02-24 06:00:00 NR -11.70 141.90 30 999 30 999
SP 08:00:00 NR -11.60 142.00 30 999 30 999
SP 09:00:00 NR -11.65 142.68 30 999
SP 10:00:00 NR -11.80 143.40 30 999 30 999
SP 12:00:00 TS -12.27 144.20 30 999 25 30 999 25
SP 15:00:00 TS -12.89 144.95 25 30 999 25
SP 16:00:00 TS -13.09 145.48 30 1000 25 30 1000 25
SP 18:00:00 TS -13.57 146.63 30 1000 25 30 1000 25
SP 21:00:00 TS -14.01 147.79 30 30 1000 30
SP 1991-02-25 00:00:00 TS -14.36 148.51 30 1000 35 30 1000 30 997 35
SP 03:00:00 TS -15.00 148.79 40 30 994 32 995 40
SP 04:00:00 TS -15.16 148.91 30 993 41 30 993 33 994 41
SP 06:00:00 TS -15.40 149.25 40 993 45 40 993 35 993 45
SP 07:00:00 TS -15.52 149.45 40 993 45 40 993 37 991 45
SP 09:00:00 TS -15.94 149.87 45 49 987 42 989 45
SP 10:00:00 TS -16.13 150.05 55 985 45 55 985 45 987 45
SP 12:00:00 TS -16.30 150.30 60 985 45 60 985 50 985 45
SP 13:00:00 TS -16.36 150.40 60 985 46 60 985 50 985 46
SP 15:00:00 TS -16.38 150.54 50 57 985 50 985 50
SP 17:00:00 TS -16.42 150.62 55 985 53 55 985 50 985 53
SP 18:00:00 TS -16.50 150.65 55 985 55 55 985 50 985 55
SP 20:00:00 TS -16.66 150.75 55 985 51 55 985 50 985 51
SP 21:00:00 TS -16.70 150.82 50 55 985 50 985 50
SP 23:00:00 TS -16.80 150.95 55 985 46 55 985 50 985 46
SP 1991-02-26 00:00:00 TS -16.90 150.98 55 985 45 55 985 50 985 45
SP 03:00:00 TS -17.25 151.14 45 55 985 50 984 45
SP 05:00:00 TS -17.41 151.18 55 985 45 55 985 50 984 45
SP 06:00:00 TS -17.45 151.15 55 984 45 55 984 50 984 45
SP 08:00:00 TS -17.44 151.01 55 982 45 55 982 50 983 45
SP 09:00:00 TS -17.38 150.91 45 55 982 50 983 45
SP 12:00:00 TS -17.15 150.60 55 984 45 55 984 50 983 45
SP 14:00:00 TS -17.18 150.48 55 982 46 55 982 51 981 46
SP 15:00:00 TS -17.22 150.42 47 55 981 52 981 47
SP 17:00:00 TS -17.26 150.29 55 980 49 55 980 54 980 49
SP 18:00:00 TS -17.20 150.20 55 980 50 55 980 55 980 50
SP 20:00:00 TS -16.88 149.97 55 980 50 55 980 55 980 50
SP 21:00:00 TS -16.70 149.93 50 55 980 55 980 50
SP 1991-02-27 00:00:00 TS -16.25 150.05 55 980 50 55 980 55 980 50
SP 03:00:00 TS -16.06 150.21 47 55 980 55 980 47
SP 06:00:00 TS -15.95 150.35 55 980 45 55 980 55 980 45
SP 09:00:00 TS -15.79 150.37 45 55 981 52 981 45
SP 12:00:00 TS -15.60 150.35 55 983 45 55 983 50 983 45
SP 14:00:00 TS -15.44 150.38 50 983 45 50 983 50 983 45
SP 15:00:00 TS -15.37 150.43 45 50 983 50 983 45
SP 18:00:00 TS -15.25 150.60 50 983 45 50 983 50 983 45
SP 20:00:00 TS -15.23 150.61 50 983 45 50 983 50 983 45
SP 21:00:00 TS -15.23 150.63 45 50 983 50 983 45
SP 1991-02-28 00:00:00 TS -15.30 150.65 50 983 45 50 983 50 983 45
SP 03:00:00 TS -15.38 150.49 45 50 984 50 984 45
SP 06:00:00 TS -15.45 150.30 50 985 45 50 985 50 985 45
SP 09:00:00 TS -15.46 150.29 45 50 985 50 985 45
SP 12:00:00 TS -15.45 150.30 50 985 45 50 985 50 985 45
SP 15:00:00 TS -15.44 150.20 40 50 985 50 985 40
SP 18:00:00 TS -15.45 150.10 50 985 35 50 985 50 985 35
SP 21:00:00 TS -15.52 150.13 35 50 985 47 985 35
SP 1991-03-01 00:00:00 TS -15.55 150.10 50 985 35 50 985 45 986 35
SP 02:00:00 TS -15.51 149.96 50 985 35 50 985 45 986 35
SP 03:00:00 TS -15.46 149.89 35 48 985 45 986 35
SP 06:00:00 TS -15.30 149.70 45 987 35 45 987 45 987 35
SP 09:00:00 TS -15.21 149.55 35 42 988 42 988 35
SP 12:00:00 TS -15.15 149.50 40 990 35 40 990 40 990 35
SP 15:00:00 TS -15.08 149.61 35 40 991 37 991 35
SP 18:00:00 TS -15.05 149.80 40 992 35 40 992 35 992 35
SP 21:00:00 TS -15.09 149.96 35 40 993 35 993 35
SP 1991-03-02 00:00:00 TS -15.15 150.08 40 994 35 40 994 35 994 35
SP 03:00:00 TS -15.16 150.10 37 40 994 35 994 37
SP 06:00:00 TS -15.15 150.08 40 994 40 40 994 35 994 40
SP 09:00:00 TS -15.16 150.07 40 40 994 35 994 40
SP 12:00:00 TS -15.15 150.05 40 994 40 40 994 35 994 40
SP 15:00:00 TS -15.08 149.99 40 40 994 35 994 40
SP 18:00:00 TS -15.00 150.00 40 994 40 40 994 35 994 40
SP 20:00:00 TS -14.96 150.09 45 994 41 45 994 35 993 41
SP 21:00:00 TS -14.91 150.13 42 45 993 35 993 42
SP 1991-03-03 00:00:00 TS -14.70 150.20 45 993 45 45 993 35 993 45
SP 02:00:00 TS -14.62 150.18 50 990 45 50 990 40 989 45
SP 03:00:00 TS -14.58 150.19 45 51 988 42 988 45
SP 06:00:00 TS -14.50 150.25 55 983 45 55 983 50 983 45
SP 08:00:00 TS -14.45 150.30 55 983 45 55 983 50 983 45
SP 09:00:00 TS -14.43 150.33 45 55 983 50 983 45
SP 12:00:00 TS -14.40 150.40 55 983 45 55 983 50 983 45
SP 15:00:00 TS -14.37 150.38 45 55 983 50 983 45
SP 18:00:00 TS -14.32 150.32 55 983 45 55 983 50 983 45
SP 21:00:00 TS -14.22 150.28 45 55 983 50 983 45
SP 1991-03-04 00:00:00 TS -14.15 150.20 55 983 45 55 983 50 983 45
SP 03:00:00 TS -14.21 150.08 45 55 983 50 983 45
SP 06:00:00 TS -14.25 149.95 55 983 45 55 983 50 983 45
SP 09:00:00 TS -14.09 149.86 45 55 983 50 983 45
SP 12:00:00 TS -13.90 149.80 55 983 45 55 983 50 983 45
SP 15:00:00 TS -13.86 149.75 40 50 985 45 985 40
SP 18:00:00 TS -13.85 149.70 45 988 35 45 988 40 988 35
SP 21:00:00 TS -13.78 149.65 35 45 989 40 989 35
SP 1991-03-05 00:00:00 TS -13.70 149.60 45 990 35 45 990 40 990 35
SP 03:00:00 TS -13.61 149.50 35 45 991 37 991 35
SP 06:00:00 TS -13.55 149.45 45 992 35 45 992 35 992 35
SP 09:00:00 TS -13.59 149.52 35 42 992 35 992 35
SP 12:00:00 TS -13.65 149.65 40 992 35 40 992 35 992 35
SP 15:00:00 TS -13.63 149.77 35 40 994 32 994 35
SP 18:00:00 TS -13.54 149.89 40 996 35 40 996 30 996 35
SP 21:00:00 TS -13.45 149.99 32 32 997 27 997 32
SP 1991-03-06 00:00:00 TS -13.35 150.13 25 998 30 25 998 25 998 30
SP 03:00:00 TS -13.23 150.41 30 30
SP 06:00:00 TS -13.20 150.70 30 30
SP 09:00:00 TS -13.04 150.85 27 27
SP 12:00:00 TS -12.80 150.90 25 25

Source Information

Agency Information
USA bsh131991.txt
TOKYO
CMA
HKO
NEWDELHI
REUNION
BOM IDCKMSTM0S.csv:Line=16835:KELVIN
NADI
WELLINGTON TC_BT_1967_2006.csv:Line=3778:KELVIN
DS824
TD9636
TD9635
NEUMANN tracks.sh:Storm=912:KELVIN:BSH131991:JTWC&NZeal19010
MLC

All available IBTrACS Data

SEASON BASIN SUBBASIN ISO_TIME_________ NATURE LAT LON WMO WIND WMO PRES WMO AGENCY DIST2LAND LANDFALL IFLAG USA AGENCY USA ATCF_ID USA LAT USA LON USA STATUS USA WIND USA SSHS BOM LAT BOM LON BOM TYPE BOM WIND BOM PRES BOM CI BOM ROCI BOM POS_METHOD WELLINGTON LAT WELLINGTON LON WELLINGTON WIND WELLINGTON PRES NEUMANN LAT NEUMANN LON NEUMANN CLASS NEUMANN WIND STORM SPEED STORM DIR
Year degrees north degrees east kts mb km km degrees north degrees east kts 1 degrees north degrees east kts mb 1 nmile degrees north degrees east kts mb degrees north degrees east kts kts degrees
1991 SP EA 1991-02-24 06:00:00 NR -11.70 141.90 30 999 bom 15 10 ______O_______ -1 -11.70 141.90 20 30 999 1.50 214 1 4 43
1991 SP EA 08:00:00 NR -11.60 142.00 30 999 bom 10 0 ______O_______ -1 -11.60 142.00 20 30 999 214 1 15 86
1991 SP EA 09:00:00 NR -11.65 142.68 0 0 ______P_______ -1 -11.65 142.68 20 30 999 227 42 98
1991 SP EA 10:00:00 NR -11.80 143.40 30 999 bom 31 39 ______O_______ -1 -11.80 143.40 20 30 999 241 3 32 113
1991 SP EA 12:00:00 TS -12.27 144.20 30 999 bom 93 93 O_____O_____O_ jtwc_sh SH131991 -12.00 145.00 25 -1 -12.40 143.80 20 30 999 2.00 241 3 -12.00 145.00 TC 25 22 126
1991 SP EA 15:00:00 TS -12.89 144.95 151 151 P_____P_____P_ SH131991 -12.67 145.75 25 -1 -13.12 144.14 20 30 999 241 -12.67 145.75 TC 25 23 123
1991 SP EA 16:00:00 TS -13.09 145.48 30 1000 bom 172 178 P_____O_____P_ SH131991 -12.88 146.00 25 -1 -13.40 144.70 20 30 1000 241 3 -12.88 146.00 TC 25 36 112
1991 SP EA 18:00:00 TS -13.57 146.63 30 1000 bom 209 209 O_____O_____O_ jtwc_sh SH131991 -13.30 146.50 25 -1 -14.10 146.90 20 30 1000 2.00 241 3 -13.30 146.50 TC 25 29 112
1991 SP EA 21:00:00 TS -14.01 147.79 291 291 P_____P_____P_ SH131991 -13.88 147.22 30 -1 -14.28 148.91 20 30 1000 254 -13.88 147.22 TC 30 20 114
1991 SP EA 1991-02-25 00:00:00 TS -14.36 148.51 30 1000 bom 348 348 O_____O_O___O_ jtwc_sh SH131991 -14.40 147.90 35 0 -14.30 149.50 20 30 1000 2.50 268 1 -14.30 149.40 30 997 -14.40 147.90 TC 35 14 135
1991 SP EA 03:00:00 TS -15.00 148.79 366 365 P_____P_P___P_ SH131991 -14.88 148.54 40 -1 -15.29 149.05 20 30 994 247 -14.88 149.26 32 995 -14.88 148.54 TC 40 13 154
1991 SP EA 04:00:00 TS -15.16 148.91 30 993 bom 375 375 P_____O_P___P_ SH131991 -15.03 148.73 41 -1 -15.50 149.00 20 30 993 241 3 -15.08 149.26 33 994 -15.03 148.73 TC 41 12 132
1991 SP EA 06:00:00 TS -15.40 149.25 40 993 bom 404 399 O_____O_O___O_ jtwc_sh SH131991 -15.30 149.10 45 0 -15.50 149.40 30 40 993 2.50 241 1 -15.50 149.40 35 993 -15.30 149.10 TC 45 13 124
1991 SP EA 07:00:00 TS -15.52 149.45 40 993 bom 419 414 P_____O_P___P_ SH131991 -15.43 149.28 45 -1 -15.50 149.70 30 40 993 241 1 -15.72 149.56 37 991 -15.43 149.28 TC 45 16 132
1991 SP EA 09:00:00 TS -15.94 149.87 438 434 P_____P_P___P_ SH131991 -15.68 149.60 45 -1 -16.24 150.30 30 49 987 258 -16.15 149.98 42 989 -15.68 149.60 TC 45 17 137
1991 SP EA 10:00:00 TS -16.13 150.05 55 985 bom 450 446 P_____O_P___P_ SH131991 -15.79 149.75 45 -1 -16.60 150.50 30 55 985 268 1 -16.33 150.21 45 987 -15.79 149.75 TC 45 11 131
1991 SP EA 12:00:00 TS -16.30 150.30 60 985 bom 463 459 O_____O_O___O_ jtwc_sh SH131991 -16.00 150.00 45 0 -16.60 150.60 30 60 985 3.00 268 1 -16.60 150.60 50 985 -16.00 150.00 TC 45 8 124
1991 SP EA 13:00:00 TS -16.36 150.40 60 985 bom 459 459 P_____O_P___P_ SH131991 -16.10 150.11 46 -1 -16.60 150.70 30 60 985 187 1 -16.64 150.69 50 985 -16.10 150.11 TC 46 5 109
1991 SP EA 15:00:00 TS -16.38 150.54 465 465 P_____P_P___P_ SH131991 -16.28 150.30 50 -1 -16.36 150.79 30 57 985 213 -16.59 150.78 50 985 -16.28 150.30 TC 50 3 107
1991 SP EA 17:00:00 TS -16.42 150.62 55 985 bom 470 460 P_____O_P___P_ SH131991 -16.43 150.44 53 -1 -16.30 150.80 30 55 985 241 1 -16.51 150.79 50 985 -16.43 150.44 TC 53 3 139
1991 SP EA 18:00:00 TS -16.50 150.65 55 985 bom 466 453 O_____O_O___O_ jtwc_sh SH131991 -16.50 150.50 55 0 -16.50 150.80 30 55 985 3.00 268 1 -16.50 150.80 50 985 -16.50 150.50 TC 55 5 150
1991 SP EA 20:00:00 TS -16.66 150.75 55 985 bom 453 453 P_____O_P___P_ SH131991 -16.60 150.63 51 -1 -16.80 150.90 30 55 985 268 1 -16.61 150.85 50 985 -16.60 150.63 TC 51 5 140
1991 SP EA 21:00:00 TS -16.70 150.82 453 449 P_____P_P___P_ SH131991 -16.65 150.69 50 -1 -16.79 151.04 30 55 985 259 -16.70 150.88 50 985 -16.65 150.69 TC 50 5 127
1991 SP EA 23:00:00 TS -16.80 150.95 55 985 bom 449 445 P_____O_P___P_ SH131991 -16.74 150.77 46 -1 -16.80 151.30 30 55 985 241 1 -16.90 150.95 50 985 -16.74 150.77 TC 46 5 145
1991 SP EA 1991-02-26 00:00:00 TS -16.90 150.98 55 985 bom 445 422 O_____O_O___O_ jtwc_sh SH131991 -16.80 150.80 45 0 -17.00 151.30 30 55 985 2.50 241 1 -17.00 151.00 50 985 -16.80 150.80 TC 45 7 158
1991 SP EA 03:00:00 TS -17.25 151.14 422 411 P_____P_P___P_ SH131991 -17.06 150.85 45 -1 -17.47 151.55 30 55 985 224 -17.40 151.32 50 984 -17.06 150.85 TC 45 7 158
1991 SP EA 05:00:00 TS -17.41 151.18 55 985 bom 411 411 P_____O_P___P_ SH131991 -17.23 150.83 45 -1 -17.60 151.60 30 55 985 214 1 -17.58 151.48 50 984 -17.23 150.83 TC 45 4 174
1991 SP EA 06:00:00 TS -17.45 151.15 55 984 bom 411 389 O_____O_O___O_ jtwc_sh SH131991 -17.30 150.80 45 0 -17.60 151.50 30 55 984 3.00 214 1 -17.60 151.50 50 984 -17.30 150.80 TC 45 3 258
1991 SP EA 08:00:00 TS -17.44 151.01 55 982 bom 398 392 P_____O_P___P_ SH131991 -17.38 150.70 45 -1 -17.60 151.30 30 55 982 214 1 -17.42 151.34 50 983 -17.38 150.70 TC 45 5 286
1991 SP EA 09:00:00 TS -17.38 150.91 392 390 P_____P_P___P_ SH131991 -17.41 150.63 45 -1 -17.46 151.16 30 55 982 214 -17.27 151.22 50 983 -17.41 150.63 TC 45 7 307
1991 SP EA 12:00:00 TS -17.15 150.60 55 984 bom 405 389 O_____O_O___O_ jtwc_sh SH131991 -17.50 150.40 45 0 -16.80 150.80 30 55 984 3.00 214 1 -16.80 150.80 50 983 -17.50 150.40 TC 45 6 297
1991 SP EA 14:00:00 TS -17.18 150.48 55 982 bom 389 383 P_____O_P___P_ SH131991 -17.73 150.25 46 -1 -16.60 150.80 30 55 982 241 1 -16.66 150.64 51 981 -17.73 150.25 TC 46 4 247
1991 SP EA 15:00:00 TS -17.22 150.42 383 368 P_____P_P___P_ SH131991 -17.84 150.17 47 -1 -16.60 150.78 30 55 981 249 -16.61 150.57 52 981 -17.84 150.17 TC 47 4 248
1991 SP EA 17:00:00 TS -17.26 150.29 55 980 bom 368 368 P_____O_P___P_ SH131991 -17.94 150.04 49 -1 -16.60 150.60 30 55 980 268 1 -16.54 150.45 54 980 -17.94 150.04 TC 49 4 275
1991 SP EA 18:00:00 TS -17.20 150.20 55 980 bom 371 371 O_____O_O___O_ jtwc_sh SH131991 -17.90 150.00 50 0 -16.50 150.40 30 55 980 3.00 241 1 -16.50 150.40 55 980 -17.90 150.00 TC 50 10 321
1991 SP EA 20:00:00 TS -16.88 149.97 55 980 bom 390 392 P_____O_P___P_ SH131991 -17.46 149.96 50 -1 -16.20 149.70 30 55 980 241 1 -16.39 150.25 55 980 -17.46 149.96 TC 50 11 333
1991 SP EA 21:00:00 TS -16.70 149.93 401 401 P_____P_P___P_ SH131991 -17.16 149.95 50 -1 -16.14 149.62 30 55 980 234 -16.34 150.19 55 980 -17.16 149.95 TC 50 10 7
1991 SP EA 1991-02-27 00:00:00 TS -16.25 150.05 55 980 bom 446 443 O_____O_O___O_ jtwc_sh SH131991 -16.30 150.00 50 0 -16.20 150.10 30 55 980 3.00 214 1 -16.20 150.10 55 980 -16.30 150.00 TC 50 7 23
1991 SP EA 03:00:00 TS -16.06 150.21 460 460 P_____P_P___P_ SH131991 -16.00 150.09 47 -1 -16.14 150.35 30 55 980 214 -16.12 150.29 55 980 -16.00 150.09 TC 47 4 44
1991 SP EA 06:00:00 TS -15.95 150.35 55 980 bom 487 484 O_____O_O___O_ jtwc_sh SH131991 -15.90 150.20 45 0 -16.00 150.50 30 55 980 2.50 214 1 -16.00 150.50 55 980 -15.90 150.20 TC 45 3 29
1991 SP EA 09:00:00 TS -15.79 150.37 492 491 P_____P_P___P_ SH131991 -15.78 150.25 45 -1 -15.82 150.51 30 55 981 214 -15.77 150.46 52 981 -15.78 150.25 TC 45 4 0
1991 SP EA 12:00:00 TS -15.60 150.35 55 983 bom 500 500 O_____O_O___O_ jtwc_sh SH131991 -15.70 150.30 45 0 -15.50 150.40 30 55 983 2.50 214 1 -15.50 150.40 50 983 -15.70 150.30 TC 45 4 0
1991 SP EA 14:00:00 TS -15.44 150.38 50 983 bom 510 510 P_____O_P___P_ SH131991 -15.63 150.36 45 -1 -15.20 150.30 30 50 983 214 1 -15.30 150.48 50 983 -15.63 150.36 TC 45 5 18
1991 SP EA 15:00:00 TS -15.37 150.43 510 510 P_____P_P___P_ SH131991 -15.59 150.40 45 -1 -15.10 150.37 30 50 983 220 -15.20 150.54 50 983 -15.59 150.40 TC 45 4 49
1991 SP EA 18:00:00 TS -15.25 150.60 50 983 bom 504 504 O_____O_O___O_ jtwc_sh SH131991 -15.50 150.50 45 0 -15.00 150.70 30 50 983 2.50 241 3 -15.00 150.70 50 983 -15.50 150.50 TC 45 3 50
1991 SP EA 20:00:00 TS -15.23 150.61 50 983 bom 504 504 P_____O_P___P_ SH131991 -15.45 150.54 45 -1 -15.00 150.60 30 50 983 241 3 -15.01 150.77 50 983 -15.45 150.54 TC 45 1 0
1991 SP EA 21:00:00 TS -15.23 150.63 504 504 P_____P_P___P_ SH131991 -15.43 150.55 45 -1 -15.03 150.61 30 50 983 241 -15.05 150.79 50 983 -15.43 150.55 TC 45 1 158
1991 SP EA 1991-02-28 00:00:00 TS -15.30 150.65 50 983 bom 516 515 O_____O_O___O_ jtwc_sh SH131991 -15.40 150.60 45 0 -15.20 150.70 30 50 983 2.50 241 3 -15.20 150.70 50 983 -15.40 150.60 TC 45 2 222
1991 SP EA 03:00:00 TS -15.38 150.49 520 500 P_____P_P___P_ SH131991 -15.44 150.71 45 -1 -15.32 150.28 30 50 984 241 -15.32 150.25 50 984 -15.44 150.71 TC 45 4 246
1991 SP EA 06:00:00 TS -15.45 150.30 50 985 bom 500 495 O_____O_O___O_ jtwc_sh SH131991 -15.50 150.80 45 0 -15.40 149.80 30 50 985 2.50 241 2 -15.40 149.80 50 985 -15.50 150.80 TC 45 2 247
1991 SP EA 09:00:00 TS -15.46 150.29 495 495 P_____P_P___P_ SH131991 -15.51 150.85 45 -1 -15.41 149.73 30 50 985 241 -15.41 149.73 50 985 -15.51 150.85 TC 45 0 0
1991 SP EA 12:00:00 TS -15.45 150.30 50 985 bom 500 491 O_____O_O___O_ jtwc_sh SH131991 -15.50 150.80 45 0 -15.40 149.80 30 50 985 2.50 241 2 -15.40 149.80 50 985 -15.50 150.80 TC 45 1 282
1991 SP EA 15:00:00 TS -15.44 150.20 491 481 P_____P_P___P_ SH131991 -15.50 150.63 40 -1 -15.38 149.77 30 50 985 241 -15.38 149.77 50 985 -15.50 150.63 TC 40 2 270
1991 SP EA 18:00:00 TS -15.45 150.10 50 985 bom 481 476 O_____O_O___O_ jtwc_sh SH131991 -15.50 150.40 35 0 -15.40 149.80 30 50 985 3.00 241 2 -15.40 149.80 50 985 -15.50 150.40 TC 35 1 221
1991 SP EA 21:00:00 TS -15.52 150.13 476 471 P_____P_P___P_ SH131991 -15.51 150.19 35 -1 -15.51 150.09 30 50 985 254 -15.52 150.04 47 985 -15.51 150.19 TC 35 1 0
1991 SP EA 1991-03-01 00:00:00 TS -15.55 150.10 50 985 bom 476 467 O_____O_O___O_ jtwc_sh SH131991 -15.50 150.00 35 0 -15.60 150.20 30 50 985 3.00 268 2 -15.60 150.20 45 986 -15.50 150.00 TC 35 2 273
1991 SP EA 02:00:00 TS -15.51 149.96 50 985 bom 467 457 P_____O_P___P_ SH131991 -15.45 149.88 35 -1 -15.60 150.00 30 50 985 241 2 -15.53 150.10 45 986 -15.45 149.88 TC 35 4 293
1991 SP EA 03:00:00 TS -15.46 149.89 457 448 P_____P_P___P_ SH131991 -15.42 149.82 35 -1 -15.55 149.91 30 48 985 241 -15.47 150.01 45 986 -15.42 149.82 TC 35 5 309
1991 SP EA 06:00:00 TS -15.30 149.70 45 987 bom 448 438 O_____O_O___O_ jtwc_sh SH131991 -15.30 149.70 35 0 -15.30 149.70 30 45 987 2.50 241 1 -15.30 149.70 45 987 -15.30 149.70 TC 35 4 307
1991 SP EA 09:00:00 TS -15.21 149.55 434 434 P_____P_P___P_ SH131991 -15.19 149.66 35 -1 -15.22 149.45 30 42 988 241 -15.24 149.44 42 988 -15.19 149.66 TC 35 2 308
1991 SP EA 12:00:00 TS -15.15 149.50 40 990 bom 439 439 O_____O_O___O_ jtwc_sh SH131991 -15.10 149.70 35 0 -15.20 149.30 30 40 990 2.50 241 3 -15.20 149.30 40 990 -15.10 149.70 TC 35 1 30
1991 SP EA 15:00:00 TS -15.08 149.61 449 449 P_____P_P___P_ SH131991 -15.02 149.84 35 -1 -15.14 149.38 30 40 991 241 -15.14 149.39 37 991 -15.02 149.84 TC 35 3 71
1991 SP EA 18:00:00 TS -15.05 149.80 40 992 bom 473 467 O_____O_O___O_ jtwc_sh SH131991 -15.00 150.00 35 0 -15.10 149.60 30 40 992 3.00 241 3 -15.10 149.60 35 992 -15.00 150.00 TC 35 3 92
1991 SP EA 21:00:00 TS -15.09 149.96 487 487 P_____P_P___P_ SH131991 -15.08 150.07 35 -1 -15.10 149.87 30 40 993 227 -15.10 149.81 35 993 -15.08 150.08 TC 35 3 111
1991 SP EA 1991-03-02 00:00:00 TS -15.15 150.08 40 994 bom 492 491 O_____O_O___O_ jtwc_sh SH131991 -15.20 150.10 35 0 -15.10 150.10 30 40 994 3.00 214 3 -15.10 150.00 35 994 -15.20 150.10 TC 35 1 116
1991 SP EA 03:00:00 TS -15.16 150.10 491 491 P_____P_P___P_ SH131991 -15.27 150.12 37 -1 -15.04 150.13 30 40 994 227 -15.04 150.07 35 994 -15.27 150.07 TC 37 0 0
1991 SP EA 06:00:00 TS -15.15 150.08 40 994 bom 492 491 O_____O_O___O_ jtwc_sh SH131991 -15.30 150.10 XX 40 -5 -15.00 150.10 30 40 994 2.50 241 3 -15.00 150.10 35 994 -15.30 150.00 TC 40 0 265
1991 SP EA 09:00:00 TS -15.16 150.07 491 491 P_____P_P___P_ SH131991 -15.28 150.01 40 -1 -15.04 150.15 30 40 994 241 -15.04 150.16 35 994 -15.28 149.95 TC 40 0 0
1991 SP EA 12:00:00 TS -15.15 150.05 40 994 bom 492 487 O_____O_O___O_ jtwc_sh SH131991 -15.20 149.90 40 -1 -15.10 150.20 30 40 994 2.50 241 3 -15.10 150.20 35 994 -15.20 149.90 TC 40 1 320
1991 SP EA 15:00:00 TS -15.08 149.99 487 481 P_____P_P___P_ SH131991 -15.06 149.82 40 -1 -15.07 150.14 30 40 994 241 -15.14 150.19 35 994 -15.06 149.83 TC 40 2 348
1991 SP EA 18:00:00 TS -15.00 150.00 40 994 bom 481 481 O_____O_O___O_ jtwc_sh SH131991 -14.90 149.80 40 -1 -15.10 150.20 30 40 994 3.00 241 3 -15.10 150.20 35 994 -14.90 149.80 TC 40 2 35
1991 SP EA 20:00:00 TS -14.96 150.09 45 994 bom 481 470 P_____O_P___P_ SH131991 -14.83 149.84 41 -1 -15.20 150.40 30 45 994 214 3 -14.99 150.27 35 993 -14.83 149.84 TC 41 3 54
1991 SP EA 21:00:00 TS -14.91 150.13 470 447 P_____P_P___P_ SH131991 -14.79 149.88 42 -1 -15.13 150.46 30 45 993 214 -14.92 150.31 35 993 -14.79 149.88 TC 42 4 22
1991 SP EA 1991-03-03 00:00:00 TS -14.70 150.20 45 993 bom 447 436 O_____O_O___O_ jtwc_sh SH131991 -14.70 150.00 45 -1 -14.70 150.40 30 45 993 3.00 214 3 -14.70 150.40 35 993 -14.70 150.00 TC 45 4 9
1991 SP EA 02:00:00 TS -14.62 150.18 50 990 bom 436 436 P_____O_P___P_ SH131991 -14.63 150.07 45 -1 -14.60 150.20 30 50 990 214 3 -14.61 150.38 40 989 -14.63 150.07 TC 45 2 350
1991 SP EA 03:00:00 TS -14.58 150.19 436 425 P_____P_P___P_ SH131991 -14.59 150.10 45 -1 -14.57 150.18 30 51 988 214 -14.58 150.36 42 988 -14.59 150.10 TC 45 2 31
1991 SP EA 06:00:00 TS -14.50 150.25 55 983 bom 425 414 O_____O_O___O_ jtwc_sh SH131991 -14.50 150.20 45 -1 -14.50 150.30 30 55 983 3.00 214 3 -14.50 150.30 50 983 -14.50 150.20 TC 45 2 39
1991 SP EA 08:00:00 TS -14.45 150.30 55 983 bom 414 414 P_____O_P___P_ SH131991 -14.46 150.28 45 -1 -14.40 150.30 30 55 983 214 3 -14.45 150.33 50 983 -14.46 150.28 TC 45 2 47
1991 SP EA 09:00:00 TS -14.43 150.33 414 414 P_____P_P___P_ SH131991 -14.45 150.32 45 -1 -14.38 150.32 30 55 983 220 -14.44 150.35 50 983 -14.45 150.32 TC 45 2 64
1991 SP EA 12:00:00 TS -14.40 150.40 55 983 bom 414 414 O_____O_O___O_ jtwc_sh SH131991 -14.40 150.40 45 -1 -14.40 150.40 30 55 983 3.00 241 3 -14.40 150.40 50 983 -14.40 150.40 TC 45 1 42
1991 SP EA 15:00:00 TS -14.37 150.38 414 403 P_____P_P___P_ SH131991 -14.30 150.37 45 -1 -14.47 150.43 30 55 983 241 -14.41 150.37 50 983 -14.30 150.37 TC 45 1 316
1991 SP EA 18:00:00 TS -14.32 150.32 55 983 bom 403 391 O_____O_O___O_ jtwc_sh SH131991 -14.20 150.30 45 -1 -14.50 150.40 30 55 983 3.00 241 3 -14.40 150.30 50 983 -14.20 150.30 TC 45 2 325
1991 SP EA 21:00:00 TS -14.22 150.28 391 391 P_____P_P___P_ SH131991 -14.14 150.27 45 -1 -14.30 150.31 30 55 983 227 -14.31 150.26 50 983 -14.14 150.27 TC 45 2 325
1991 SP EA 1991-03-04 00:00:00 TS -14.15 150.20 55 983 bom 380 391 O_____O_O___O_ jtwc_sh SH131991 -14.10 150.20 45 -1 -14.20 150.20 30 55 983 3.00 214 3 -14.20 150.20 50 983 -14.10 150.20 TC 45 2 273
1991 SP EA 03:00:00 TS -14.21 150.08 392 392 P_____P_P___P_ SH131991 -14.05 150.06 45 -1 -14.66 150.09 30 55 983 214 -14.09 150.10 50 983 -14.05 150.06 TC 45 3 248
1991 SP EA 06:00:00 TS -14.25 149.95 55 983 bom 392 382 O_____O_O___O_ jtwc_sh SH131991 -14.00 149.90 45 -1 -15.00 150.00 30 55 983 2.50 214 3 -14.00 150.00 50 983 -14.00 149.90 TC 45 2 302
1991 SP EA 09:00:00 TS -14.09 149.86 382 360 P_____P_P___P_ SH131991 -13.95 149.79 45 -1 -14.51 149.93 30 55 983 214 -13.93 149.94 50 983 -13.95 149.79 TC 45 4 337
1991 SP EA 12:00:00 TS -13.90 149.80 55 983 bom 360 360 O_____O_O___O_ jtwc_sh SH131991 -13.90 149.70 45 -1 -13.90 149.90 30 55 983 2.50 214 3 -13.90 149.90 50 983 -13.90 149.70 TC 45 3 333
1991 SP EA 15:00:00 TS -13.86 149.75 362 362 P_____P_P___P_ SH131991 -13.86 149.59 40 -1 -13.82 149.90 30 50 985 200 -13.90 149.90 45 985 -13.86 149.59 TC 40 1 297
1991 SP EA 18:00:00 TS -13.85 149.70 45 988 bom 351 351 O_____O_O___O_ jtwc_sh SH131991 -13.80 149.50 35 -1 -13.90 149.90 30 45 988 2.50 187 3 -13.90 149.90 40 988 -13.80 149.50 TC 35 1 311
1991 SP EA 21:00:00 TS -13.78 149.65 351 342 P_____P_P___P_ SH131991 -13.71 149.43 35 -1 -13.86 149.87 30 45 989 200 -13.86 149.87 40 989 -13.71 149.43 TC 35 2 328
1991 SP EA 1991-03-05 00:00:00 TS -13.70 149.60 45 990 bom 342 333 O_____O_O___O_ jtwc_sh SH131991 -13.60 149.40 35 -1 -13.80 149.80 30 45 990 2.50 214 3 -13.80 149.80 40 990 -13.60 149.40 TC 35 2 320
1991 SP EA 03:00:00 TS -13.61 149.50 333 333 P_____P_P___P_ SH131991 -13.49 149.39 35 -1 -13.72 149.62 30 45 991 214 -13.72 149.62 37 991 -13.49 149.39 TC 35 2 316
1991 SP EA 06:00:00 TS -13.55 149.45 45 992 bom 322 322 O_____O_O___O_ jtwc_sh SH131991 -13.40 149.40 35 -1 -13.70 149.50 30 45 992 2.50 214 3 -13.70 149.50 35 992 -13.40 149.40 TC 35 0 0
1991 SP EA 09:00:00 TS -13.59 149.52 333 331 P_____P_P___P_ SH131991 -13.34 149.43 35 -1 -13.85 149.61 30 42 992 214 -13.84 149.61 35 992 -13.34 149.43 TC 35 2 117
1991 SP EA 12:00:00 TS -13.65 149.65 40 992 bom 329 327 O_____O_O___O_ jtwc_sh SH131991 -13.30 149.50 35 -1 -14.00 149.80 30 40 992 2.50 214 3 -14.00 149.80 35 992 -13.30 149.50 TC 35 2 100
1991 SP EA 15:00:00 TS -13.63 149.77 327 315 P_____P_P___P_ SH131991 -13.24 149.64 35 -1 -13.99 149.90 30 40 994 200 -14.06 149.91 32 994 -13.24 149.64 TC 35 3 65
1991 SP EA 18:00:00 TS -13.54 149.89 40 996 bom 315 314 O_____O_O___O_ jtwc_sh SH131991 -13.20 149.80 35 -1 -13.90 150.00 30 40 996 2.00 187 3 -14.10 150.00 30 996 -13.20 149.80 TC 35 3 50
1991 SP EA 21:00:00 TS -13.45 149.99 314 302 P_____P_P___P_ SH131991 -13.19 149.93 32 -1 -13.80 150.14 30 32 997 -14.15 150.10 27 997 -13.19 149.93 TC 32 3 51
1991 SP EA 1991-03-06 00:00:00 TS -13.35 150.13 25 998 bom 291 279 O_____O_O___O_ jtwc_sh SH131991 -13.20 150.10 30 -1 -13.70 150.30 20 25 998 1.50 3 -14.20 150.20 25 998 -13.20 150.10 TC 30 5 61
1991 SP EA 03:00:00 TS -13.23 150.41 279 279 P___________P_ SH131991 -13.23 150.41 30 -1 20 -13.23 150.41 TC 30 6 75
1991 SP EA 06:00:00 TS -13.20 150.70 281 272 O___________O_ jtwc_sh SH131991 -13.20 150.70 30 -1 -13.20 150.70 TC 30 5 66
1991 SP EA 09:00:00 TS -13.04 150.85 261 241 P___________P_ SH131991 -13.04 150.85 27 -1 -13.04 150.85 TC 27 4 26
1991 SP EA 12:00:00 TS -12.80 150.90 241 O___________O_ jtwc_sh SH131991 -12.80 150.90 25 -1 -12.80 150.90 TC 25 5 14